createdAt,value
2023-02-02T00:03:58.741Z,101472.97
2023-02-02T00:08:50.924Z,101484.72
2023-02-02T00:13:42.496Z,101527.03
2023-02-02T00:18:34.046Z,101527.25
2023-02-02T00:23:27.258Z,101536.44
2023-02-02T00:28:18.977Z,101510.09
2023-02-02T00:33:10.998Z,101522.94
2023-02-02T00:38:02.535Z,101424.75
2023-02-02T00:42:54.082Z,101450.31
2023-02-02T00:47:48.827Z,101469.97
2023-02-02T00:52:41.362Z,101428.84
2023-02-02T00:57:32.955Z,101513.31
2023-02-02T01:02:25.246Z,101444.28
2023-02-02T01:07:16.850Z,101512.16
2023-02-02T01:12:08.996Z,101519.31
2023-02-02T01:17:00.553Z,101520.75
2023-02-02T01:21:52.998Z,101451.59
2023-02-02T01:26:45.216Z,101522.22
2023-02-02T01:31:37.183Z,101531.34
2023-02-02T01:36:29.059Z,101546.06
2023-02-02T01:41:24.655Z,101551.31
2023-02-02T01:46:21.720Z,101551.94
2023-02-02T01:51:22.017Z,101553.59
2023-02-02T01:56:21.356Z,101550.88
2023-02-02T02:01:15.072Z,101512.72
2023-02-02T02:06:14.682Z,101561.94
2023-02-02T02:11:08.023Z,101460.28
2023-02-02T02:16:33.245Z,101527.84
2023-02-02T02:22:05.355Z,101553.91
2023-02-02T02:27:13.071Z,101551.44
2023-02-02T02:32:20.199Z,101542.66
2023-02-02T02:37:24.531Z,101533.16
2023-02-02T02:42:21.779Z,101533.00
2023-02-02T02:47:16.602Z,101534.13
2023-02-02T02:52:08.782Z,101510.75
2023-02-02T02:57:12.300Z,101542.84
2023-02-02T03:02:49.330Z,101541.19
2023-02-02T03:08:05.906Z,101551.53
2023-02-02T03:12:57.760Z,101491.44
2023-02-02T03:17:52.882Z,101544.81
2023-02-02T03:22:44.497Z,101481.25
2023-02-02T03:27:38.049Z,101514.78
2023-02-02T03:32:29.588Z,101556.50
2023-02-02T03:37:21.129Z,101517.75
2023-02-02T03:42:12.657Z,101516.63
2023-02-02T03:47:04.216Z,101571.19
2023-02-02T03:51:55.713Z,101568.59
2023-02-02T03:56:47.333Z,101532.25
2023-02-02T04:01:38.911Z,101566.47
2023-02-02T04:06:31.868Z,101561.25
2023-02-02T04:11:23.417Z,101566.63
2023-02-02T04:16:15.030Z,101568.25
2023-02-02T04:21:08.494Z,101529.81
2023-02-02T04:26:00.199Z,101524.78
2023-02-02T04:30:53.762Z,101576.09
2023-02-02T04:35:45.638Z,101586.06
2023-02-02T04:40:45.456Z,101584.28
2023-02-02T04:45:37.827Z,101573.56
2023-02-02T04:50:29.872Z,101562.03
2023-02-02T04:55:21.853Z,101535.28
2023-02-02T05:00:14.335Z,101576.06
2023-02-02T05:05:07.921Z,101602.47
2023-02-02T05:09:59.479Z,101600.66
2023-02-02T05:14:51.037Z,101603.28
2023-02-02T05:19:42.680Z,101522.28
2023-02-02T05:24:34.272Z,101572.97
2023-02-02T05:29:26.848Z,101534.50
2023-02-02T05:34:18.453Z,101564.81
2023-02-02T05:39:10.279Z,101601.34
2023-02-02T05:44:03.045Z,101598.41
2023-02-02T05:48:54.667Z,101585.53
2023-02-02T05:53:47.600Z,101551.28
2023-02-02T05:58:39.344Z,101535.97
2023-02-02T06:03:31.046Z,101590.75
2023-02-02T06:08:22.845Z,101593.34
2023-02-02T06:13:14.370Z,101554.56
2023-02-02T06:18:08.225Z,101570.84
2023-02-02T06:23:00.026Z,101609.03
2023-02-02T06:27:56.054Z,101619.09
2023-02-02T06:32:47.586Z,101635.09
2023-02-02T06:37:39.290Z,101639.69
2023-02-02T06:42:30.790Z,101647.34
2023-02-02T06:47:22.311Z,101636.09
2023-02-02T06:52:13.867Z,101643.59
2023-02-02T06:57:05.509Z,101633.63
2023-02-02T07:01:57.104Z,101648.50
2023-02-02T07:06:48.921Z,101643.59
2023-02-02T07:11:42.820Z,101640.00
2023-02-02T07:16:36.808Z,101594.66
2023-02-02T07:21:30.061Z,101548.84
2023-02-02T07:26:21.764Z,101604.63
2023-02-02T07:31:15.283Z,101671.16
2023-02-02T07:36:06.994Z,101664.97
2023-02-02T07:41:01.109Z,101668.06
2023-02-02T07:45:52.675Z,101620.09
2023-02-02T07:50:44.151Z,101680.13
2023-02-02T07:55:35.747Z,101645.72
2023-02-02T08:00:27.975Z,101686.81
2023-02-02T08:05:19.838Z,101629.41
2023-02-02T08:10:12.019Z,101577.72
2023-02-02T08:15:03.923Z,101656.31
2023-02-02T08:19:55.479Z,101678.66
2023-02-02T08:24:48.025Z,101695.66
2023-02-02T08:29:39.611Z,101471.75
2023-02-02T08:34:31.533Z,101624.03
2023-02-02T08:39:23.140Z,101694.81
2023-02-02T08:44:16.111Z,101694.81
2023-02-02T08:49:11.019Z,101703.09
2023-02-02T08:54:02.543Z,101708.22
2023-02-02T08:58:56.509Z,101712.94
2023-02-02T09:03:48.232Z,101656.97
2023-02-02T09:08:40.619Z,101710.81
2023-02-02T09:13:32.321Z,101724.22
2023-02-02T09:18:24.063Z,101694.34
2023-02-02T09:23:15.696Z,101737.16
2023-02-02T09:28:07.974Z,101702.41
2023-02-02T09:32:59.553Z,101739.13
2023-02-02T09:37:51.038Z,101688.25
2023-02-02T09:42:59.118Z,101764.94
2023-02-02T09:47:55.461Z,101777.50
2023-02-02T09:52:58.394Z,101780.31
2023-02-02T09:57:54.058Z,101790.59
2023-02-02T10:02:49.883Z,101806.13
2023-02-02T10:07:45.859Z,101763.00
2023-02-02T10:12:57.472Z,101828.22
2023-02-02T10:17:59.083Z,101778.72
2023-02-02T10:22:51.517Z,101830.31
2023-02-02T10:27:52.789Z,101802.06
2023-02-02T10:33:07.829Z,101844.38
2023-02-02T10:38:28.990Z,101841.28
2023-02-02T10:43:47.688Z,101795.38
2023-02-02T10:48:41.026Z,101843.34
2023-02-02T10:53:34.786Z,101787.66
2023-02-02T10:58:31.188Z,101720.88
2023-02-02T11:03:32.413Z,101850.91
2023-02-02T11:08:36.189Z,101744.50
2023-02-02T11:13:31.264Z,101846.13
2023-02-02T11:18:30.702Z,101804.44
2023-02-02T11:23:23.323Z,101766.41
2023-02-02T11:28:25.711Z,101758.16
2023-02-02T11:33:35.534Z,101847.28
2023-02-02T11:38:28.168Z,101811.03
2023-02-02T11:43:28.248Z,101798.88
2023-02-02T11:48:23.155Z,101843.22
2023-02-02T11:53:23.364Z,101803.47
2023-02-02T11:58:19.736Z,101823.94
2023-02-02T12:03:25.557Z,101832.31
2023-02-02T12:08:17.262Z,101826.84
2023-02-02T12:13:22.401Z,101773.78
2023-02-02T12:18:40.072Z,101736.47
2023-02-02T12:24:12.433Z,101819.84
2023-02-02T12:29:34.439Z,101832.25
2023-02-02T12:34:54.522Z,101824.25
2023-02-02T12:40:18.475Z,101829.03
2023-02-02T12:45:32.066Z,101822.50
2023-02-02T12:50:38.657Z,101812.44
2023-02-02T12:55:42.096Z,101822.16
2023-02-02T13:01:07.311Z,101799.16
2023-02-02T13:06:27.170Z,101824.41
2023-02-02T13:11:39.213Z,101780.47
2023-02-02T13:16:32.352Z,101781.03
2023-02-02T13:21:25.321Z,101752.72
2023-02-02T13:26:19.438Z,101805.06
2023-02-02T13:31:19.878Z,101801.84
2023-02-02T13:36:38.053Z,101843.56
2023-02-02T13:41:31.378Z,101845.97
2023-02-02T13:46:34.235Z,101838.50
2023-02-02T13:51:40.913Z,101841.88
2023-02-02T13:56:38.356Z,101841.97
2023-02-02T14:01:31.301Z,101787.94
2023-02-02T14:06:25.869Z,101821.06
2023-02-02T14:11:26.213Z,101822.59
2023-02-02T14:16:45.678Z,101727.84
2023-02-02T14:21:37.176Z,101837.81
2023-02-02T14:26:47.453Z,101844.25
2023-02-02T14:31:53.166Z,101851.38
2023-02-02T14:36:59.776Z,101841.97
2023-02-02T14:42:36.313Z,101845.41
2023-02-02T14:47:49.302Z,101853.28
2023-02-02T14:52:41.451Z,101851.94
2023-02-02T14:57:34.613Z,101854.22
2023-02-02T15:02:28.960Z,101873.66
2023-02-02T15:07:23.655Z,101871.97
2023-02-02T15:12:22.553Z,101870.28
2023-02-02T15:17:39.269Z,101885.22
2023-02-02T15:22:37.302Z,101886.19
2023-02-02T15:27:32.459Z,101877.00
2023-02-02T15:32:28.241Z,101853.56
2023-02-02T15:37:24.490Z,101892.03
2023-02-02T15:42:38.743Z,101804.88
2023-02-02T15:47:34.961Z,101841.97
2023-02-02T15:52:36.134Z,101904.69
2023-02-02T15:57:33.209Z,101825.72
2023-02-02T16:02:37.468Z,101912.88
2023-02-02T16:07:33.588Z,101931.88
2023-02-02T16:12:26.105Z,101929.31
2023-02-02T16:17:21.577Z,101929.34
2023-02-02T16:22:21.309Z,101872.75
2023-02-02T16:27:17.775Z,101924.69
2023-02-02T16:32:31.299Z,101947.53
2023-02-02T16:37:28.733Z,101940.84
2023-02-02T16:42:32.276Z,101940.69
2023-02-02T16:47:26.886Z,101948.41
2023-02-02T16:52:21.259Z,101905.78
2023-02-02T16:57:27.263Z,101962.97
2023-02-02T17:02:35.560Z,101796.28
2023-02-02T17:07:29.634Z,101960.53
2023-02-02T17:12:34.543Z,101961.97
2023-02-02T17:17:29.226Z,101972.31
2023-02-02T17:22:23.801Z,101952.91
2023-02-02T17:27:18.311Z,101977.59
2023-02-02T17:32:13.265Z,101974.38
2023-02-02T17:37:05.442Z,101910.34
2023-02-02T17:41:57.207Z,101989.56
2023-02-02T17:46:50.299Z,101943.34
2023-02-02T17:51:43.282Z,102000.25
2023-02-02T17:56:34.795Z,102003.25
2023-02-02T18:01:26.444Z,102000.34
2023-02-02T18:06:18.092Z,102023.56
2023-02-02T18:11:12.786Z,102025.88
2023-02-02T18:16:06.478Z,102029.31
2023-02-02T18:20:58.912Z,102004.13
2023-02-02T18:25:53.258Z,102036.34
2023-02-02T18:30:46.805Z,101975.47
2023-02-02T18:35:46.355Z,102042.25
2023-02-02T18:40:38.324Z,101955.69
2023-02-02T18:45:30.167Z,101925.63
2023-02-02T18:50:21.997Z,101985.94
2023-02-02T18:55:14.271Z,101962.88
2023-02-02T19:00:06.664Z,101957.66
2023-02-02T19:05:16.818Z,101928.06
2023-02-02T19:10:09.013Z,102016.72
2023-02-02T19:15:01.568Z,101947.53
2023-02-02T19:19:53.151Z,101923.66
2023-02-02T19:24:44.718Z,102010.34
2023-02-02T19:29:38.252Z,101967.00
2023-02-02T19:34:34.028Z,101992.19
2023-02-02T19:39:33.087Z,102002.31
2023-02-02T19:44:29.658Z,101956.53
2023-02-02T19:49:32.393Z,101947.38
2023-02-02T19:54:23.886Z,102028.47
2023-02-02T19:59:20.002Z,102024.06
2023-02-02T20:04:15.507Z,101950.31
2023-02-02T20:09:15.437Z,102005.56
2023-02-02T20:14:19.270Z,102030.41
2023-02-02T20:19:26.754Z,101952.59
2023-02-02T20:24:23.548Z,102010.81
2023-02-02T20:29:28.801Z,102017.06
2023-02-02T20:34:34.355Z,102017.22
2023-02-02T20:39:36.678Z,101903.06
2023-02-02T20:44:29.632Z,102021.47
2023-02-02T20:49:25.361Z,102024.59
2023-02-02T20:54:17.005Z,101952.59
2023-02-02T20:59:09.800Z,101925.78
2023-02-02T21:04:01.440Z,102028.84
2023-02-02T21:08:53.482Z,102037.00
2023-02-02T21:13:45.787Z,102028.81
2023-02-02T21:18:37.363Z,102038.81
2023-02-02T21:23:28.997Z,101923.66
2023-02-02T21:28:20.534Z,102008.72
2023-02-02T21:33:12.107Z,102010.19
2023-02-02T21:38:12.672Z,102021.16
2023-02-02T21:43:18.337Z,101983.03
2023-02-02T21:48:18.943Z,102069.72
2023-02-02T21:53:21.335Z,102047.16
2023-02-02T21:58:35.827Z,102083.97
2023-02-02T22:03:40.565Z,102078.06
2023-02-02T22:08:37.181Z,102034.88
2023-02-02T22:13:34.638Z,102078.69
2023-02-02T22:18:28.764Z,101972.72
2023-02-02T22:23:27.390Z,102076.41
2023-02-02T22:28:24.698Z,101961.63
2023-02-02T22:33:16.571Z,102073.78
2023-02-02T22:38:08.680Z,102018.19
2023-02-02T22:43:02.961Z,102077.88
2023-02-02T22:47:54.713Z,102070.19
2023-02-02T22:52:46.297Z,102072.16
2023-02-02T22:57:38.170Z,102070.00
2023-02-02T23:02:31.306Z,102051.38
2023-02-02T23:07:22.995Z,102033.41
2023-02-02T23:12:15.879Z,102059.53
2023-02-02T23:17:08.171Z,102046.75
2023-02-02T23:22:00.487Z,101996.59
2023-02-02T23:26:53.593Z,101950.31
2023-02-02T23:31:47.368Z,102033.84
2023-02-02T23:36:39.065Z,101900.78
2023-02-02T23:41:30.870Z,102050.69
2023-02-02T23:46:22.834Z,102048.22
2023-02-02T23:51:16.452Z,102052.34
2023-02-02T23:56:08.019Z,101904.19
